Flight Track Log - Related Links

Times and Time Zones

All times are in EDT time to prevent confusion due to time zone crossing. See the WBR2705 flight status page for this flight to view local times or setup timezone preferences in your user account.

Time Position Orientation Groundspeed Altitude Reporting Facility
EDT Latitude Longitude Course Direction KTS MPH feet Rate Location/Type
Fri 03:54:12 PM 38.6839 -90.3242 184° South 111 128 2,100  Level Kansas City Center
Fri 03:55:14 PM 38.6500 -90.3144 167° South 117 135 2,800 435 Climbing Kansas City Center
Fri 03:56:16 PM 38.6158 -90.3028 165° South 121 139 3,000 532 Climbing Kansas City Center
Fri 03:57:18 PM 38.5681 -90.2956 173° South 133 153 3,900 768 Climbing Kansas City Center
Fri 03:58:00 PM 38.4935 -90.3951 185° South  Level Estimated
Fri 03:58:21 PM 38.5353 -90.2986 184° South 124 143 4,600  Level Kansas City Center
Fri 03:59:00 PM 38.4510 -90.3987 184° South  Level FlightAware Approximate
Fri 03:59:23 PM 38.5158 -90.2633 125° Southeast 131 151 5,000  Level Kansas City Center
Fri 04:00:25 PM 38.4958 -90.2219 122° Southeast 137 158 5,800 484 Climbing Kansas City Center
Fri 04:01:27 PM 38.4586 -90.2228 181° South 140 161 6,000 97 Climbing Kansas City Center
Fri 04:02:29 PM 38.4194 -90.2294 188° South 140 161 6,000  Level Kansas City Center
Fri 04:03:31 PM 38.3725 -90.2364 187° South 141 162 6,000  Level Kansas City Center
Fri 04:04:33 PM 38.3328 -90.2436 188° South 142 163 6,000  Level Kansas City Center
Fri 04:05:35 PM 38.2919 -90.2500 187° South 145 167 6,000  Level Kansas City Center
Fri 04:06:37 PM 38.2522 -90.2561 187° South 145 167 6,000  Level Kansas City Center
Fri 04:07:39 PM 38.2125 -90.2625 187° South 144 166 6,000  Level Kansas City Center
Fri 04:08:41 PM 38.1714 -90.2700 188° South 146 168 6,000 48 Level Kansas City Center
Fri 04:09:43 PM 38.1236 -90.2767 186° South 146 168 6,100 48 Climbing Kansas City Center
Fri 04:10:45 PM 38.0822 -90.2842 188° South 150 173 6,100  Level Kansas City Center
Fri 04:11:47 PM 38.0422 -90.2900 187° South 146 168 6,100  Level Kansas City Center
Fri 04:12:49 PM 38.0022 -90.2969 188° South 145 167 6,100  Level Kansas City Center
Fri 04:13:51 PM 37.9611 -90.3031 187° South 148 170 6,100 -48 Level Kansas City Center
Fri 04:14:53 PM 37.9219 -90.3100 188° South 142 163 6,000 -48 Descending Kansas City Center
Fri 04:15:55 PM 37.8736 -90.3183 188° South 144 166 6,000  Level Kansas City Center
Fri 04:16:57 PM 37.8333 -90.3247 187° South 146 168 6,000  Level Kansas City Center
Fri 04:17:59 PM 37.7919 -90.3322 188° South 148 170 6,000  Level Kansas City Center
Fri 04:19:01 PM 37.7514 -90.3397 188° South 148 170 6,000  Level Kansas City Center
Fri 04:20:03 PM 37.7114 -90.3453 186° South 146 168 6,000  Level Kansas City Center
Fri 04:21:05 PM 37.6717 -90.3489 184° South 145 167 6,000  Level Kansas City Center
Fri 04:22:07 PM 37.6236 -90.3561 187° South 145 167 6,000  Level Kansas City Center
Fri 04:23:09 PM 37.5836 -90.3661 191° South 145 167 6,000  Level Kansas City Center
Fri 04:24:11 PM 37.5450 -90.3767 192° South 144 166 6,000  Level Kansas City Center
Fri 04:25:14 PM 37.5053 -90.3842 189° South 144 166 6,000  Level Kansas City Center
Fri 04:26:16 PM 37.4647 -90.3856 182° South 144 166 6,000  Level Kansas City Center
Fri 04:27:18 PM 37.4250 -90.3894 184° South 144 166 6,000  Level Kansas City Center
Fri 04:28:20 PM 37.3786 -90.4003 191° South 143 165 6,000 48 Level Kansas City Center
Fri 04:29:22 PM 37.3394 -90.4078 189° South 142 163 6,100 48 Climbing Kansas City Center
Fri 04:30:24 PM 37.3025 -90.4114 184° South 139 160 6,100  Level Kansas City Center
Fri 04:31:26 PM 37.2639 -90.4161 186° South 137 158 6,100  Level Kansas City Center
Fri 04:32:28 PM 37.2250 -90.4225 187° South 138 159 6,100  Level Kansas City Center
Fri 04:33:30 PM 37.1775 -90.4300 187° South 140 161 6,100  Level Kansas City Center
Fri 04:34:32 PM 37.1386 -90.4369 188° South 141 162 6,100  Level Kansas City Center
Fri 04:35:34 PM 37.0997 -90.4442 188° South 142 163 6,100  Level Kansas City Center
Fri 04:36:36 PM 37.0614 -90.4497 187° South 140 161 6,100  Level Kansas City Center
Fri 04:37:38 PM 37.0231 -90.4561 188° South 140 161 6,100  Level Kansas City Center
Fri 04:38:40 PM 36.9839 -90.4631 188° South 140 161 6,100  Level Kansas City Center
Fri 04:39:42 PM 36.9383 -90.4700 187° South 139 160 6,100  Level Kansas City Center
Fri 04:40:44 PM 36.8989 -90.4769 188° South 140 161 6,100  Level Kansas City Center
Fri 04:41:46 PM 36.8597 -90.4831 187° South 141 162 6,100 -50 Level Kansas City Center
Fri 04:42:43 PM 36.8194 -90.4917 190° South 144 166 6,000 -105 Descending Memphis Center

Login

Don't have an account? Register now (free) for customized features, flight alerts, and more!